Time,TemperatureF,DewpointF,PressureIn,WindDirection,WindDirectionDegrees,WindSpeedMPH,WindSpeedGustMPH,Humidity,HourlyPrecipIn,Conditions,Clouds,dailyrainin,SoftwareType,DateUTC
2013-04-01 00:03:00,48.6,31.3,28.38,North,2,7.6,7.6,51,0.00,,---,0.00,VWS V14.00,2013-04-01 05:03:00,
2013-04-01 00:08:00,49.3,31.5,28.41,North,353,2.7,4.9,50,0.00,,---,0.00,VWS V14.00,2013-04-01 05:08:00,
2013-04-01 00:14:00,50.0,31.1,28.41,North,8,2.7,3.6,48,0.00,,---,0.00,VWS V14.00,2013-04-01 05:14:00,
2013-04-01 00:19:00,50.4,30.9,28.41,North,9,4.0,4.0,47,0.00,,---,0.00,VWS V14.00,2013-04-01 05:19:00,
2013-04-01 00:24:00,50.9,31.4,28.44,North,357,5.8,8.3,47,0.00,,---,0.00,VWS V14.00,2013-04-01 05:24:00,
2013-04-01 00:29:00,51.1,31.0,28.44,North,7,5.8,5.8,46,0.00,,---,0.00,VWS V14.00,2013-04-01 05:29:00,
2013-04-01 00:34:00,51.1,31.0,28.44,North,0,3.1,3.6,46,0.00,,---,0.00,VWS V14.00,2013-04-01 05:34:00,
2013-04-01 00:39:00,51.1,31.0,28.44,North,0,4.0,4.0,46,0.00,,---,0.00,VWS V14.00,2013-04-01 05:39:00,
2013-04-01 00:44:00,51.1,31.0,28.44,NNE,18,4.0,7.6,46,0.00,,---,0.00,VWS V14.00,2013-04-01 05:44:00,
2013-04-01 00:49:00,51.1,31.0,28.44,NNE,20,6.3,6.3,46,0.00,,---,0.00,VWS V14.00,2013-04-01 05:49:00,
2013-04-01 00:54:00,51.1,30.5,28.44,North,357,6.3,10.1,45,0.00,,---,0.00,VWS V14.00,2013-04-01 05:54:00,
2013-04-01 00:59:00,51.1,30.5,28.44,NNE,19,2.7,5.8,45,0.00,,---,0.00,VWS V14.00,2013-04-01 05:59:00,
2013-04-01 01:04:00,50.9,30.3,28.47,NNE,17,3.1,4.9,45,0.00,,---,0.00,VWS V14.00,2013-04-01 06:04:00,
2013-04-01 01:10:00,50.9,29.8,28.47,North,357,6.3,6.3,44,0.00,,---,0.00,VWS V14.00,2013-04-01 06:10:00,
2013-04-01 01:15:00,50.9,29.8,28.47,NE,37,5.8,5.8,44,0.00,,---,0.00,VWS V14.00,2013-04-01 06:15:00,
2013-04-01 01:20:00,50.9,29.8,28.47,NNW,341,5.8,5.8,44,0.00,,---,0.00,VWS V14.00,2013-04-01 06:20:00,
2013-04-01 01:25:00,50.9,29.2,28.47,NNE,28,8.3,8.3,43,0.00,,---,0.00,VWS V14.00,2013-04-01 06:25:00,
2013-04-01 01:30:00,50.9,29.2,28.47,North,9,5.8,8.1,43,0.00,,---,0.00,VWS V14.00,2013-04-01 06:30:00,
2013-04-01 01:35:00,50.7,28.5,28.47,North,357,11.9,11.9,42,0.00,,---,0.00,VWS V14.00,2013-04-01 06:35:00,
2013-04-01 01:40:00,50.2,27.4,28.47,NNE,15,10.1,10.1,41,0.00,,---,0.00,VWS V14.00,2013-04-01 06:40:00,
2013-04-01 01:45:00,49.8,26.5,28.47,NE,39,8.3,8.3,40,0.00,,---,0.00,VWS V14.00,2013-04-01 06:45:00,
2013-04-01 01:50:00,49.1,25.8,28.50,North,357,12.8,12.8,40,0.00,,---,0.00,VWS V14.00,2013-04-01 06:50:00,
2013-04-01 01:55:00,48.7,25.5,28.50,North,0,11.0,11.0,40,0.00,,---,0.00,VWS V14.00,2013-04-01 06:55:00,
2013-04-01 02:00:00,48.2,24.4,28.50,North,353,8.1,12.8,39,0.00,,---,0.00,VWS V14.00,2013-04-01 07:00:00,
2013-04-01 02:05:00,47.8,24.7,28.50,North,353,5.4,6.3,40,0.00,,---,0.00,VWS V14.00,2013-04-01 07:05:00,
2013-04-01 02:10:00,47.3,24.8,28.50,North,357,7.6,12.8,41,0.00,,---,0.00,VWS V14.00,2013-04-01 07:10:00,
2013-04-01 02:16:00,46.9,25.1,28.50,North,0,10.1,10.5,42,0.00,,---,0.00,VWS V14.00,2013-04-01 07:16:00,
2013-04-01 02:21:00,46.2,25.0,28.53,NNE,27,5.8,17.0,43,0.00,,---,0.00,VWS V14.00,2013-04-01 07:21:00,
2013-04-01 02:26:00,45.5,25.4,28.53,NNE,15,11.0,11.4,45,0.00,,---,0.00,VWS V14.00,2013-04-01 07:26:00,
2013-04-01 02:31:00,44.8,25.8,28.53,NE,35,8.7,10.5,47,0.00,,---,0.00,VWS V14.00,2013-04-01 07:31:00,
2013-04-01 02:36:00,44.2,26.3,28.53,NNE,23,8.3,10.1,49,0.00,,---,0.00,VWS V14.00,2013-04-01 07:36:00,
2013-04-01 02:41:00,43.7,26.3,28.53,NNE,30,8.3,17.4,50,0.00,,---,0.00,VWS V14.00,2013-04-01 07:41:00,
2013-04-01 02:47:00,43.3,26.4,28.53,NNW,333,10.5,10.5,51,0.00,,---,0.00,VWS V14.00,2013-04-01 07:47:00,
2013-04-01 02:52:00,43.0,26.1,28.53,NNE,22,8.7,8.7,51,0.00,,---,0.00,VWS V14.00,2013-04-01 07:52:00,
2013-04-01 02:57:00,42.8,26.4,28.53,North,0,8.7,10.1,52,0.00,,---,0.00,VWS V14.00,2013-04-01 07:57:00,
2013-04-01 03:02:00,42.4,27.0,28.53,North,5,11.0,11.0,54,0.00,,---,0.00,VWS V14.00,2013-04-01 08:02:00,
2013-04-01 03:08:00,42.3,26.8,28.56,North,0,8.7,8.7,54,0.00,,---,0.00,VWS V14.00,2013-04-01 08:08:00,
2013-04-01 03:12:00,42.3,27.3,28.56,North,353,4.0,5.4,55,0.00,,---,0.00,VWS V14.00,2013-04-01 08:12:00,
2013-04-01 03:17:00,42.1,27.5,28.56,NNW,338,12.8,12.8,56,0.00,,---,0.00,VWS V14.00,2013-04-01 08:17:00,
2013-04-01 03:23:00,42.1,28.0,28.56,NNE,31,15.0,15.0,57,0.00,,---,0.00,VWS V14.00,2013-04-01 08:23:00,
2013-04-01 03:28:00,41.9,28.6,28.56,North,357,8.1,9.6,59,0.00,,---,0.00,VWS V14.00,2013-04-01 08:28:00,
2013-04-01 03:33:00,41.9,29.0,28.56,North,0,7.6,7.6,60,0.00,,---,0.00,VWS V14.00,2013-04-01 08:33:00,
2013-04-01 03:38:00,41.7,29.3,28.59,NNE,14,4.5,4.9,61,0.00,,---,0.00,VWS V14.00,2013-04-01 08:38:00,
2013-04-01 03:43:00,41.7,29.7,28.59,North,353,5.8,10.1,62,0.00,,---,0.00,VWS V14.00,2013-04-01 08:43:00,
2013-04-01 03:48:00,41.5,29.5,28.59,NW,321,3.6,7.6,62,0.00,,---,0.00,VWS V14.00,2013-04-01 08:48:00,
2013-04-01 03:53:00,41.5,30.3,28.59,NNW,330,5.8,5.8,64,0.00,,---,0.00,VWS V14.00,2013-04-01 08:53:00,
2013-04-01 03:58:00,41.4,30.5,28.59,NE,52,6.3,6.3,65,0.00,,---,0.00,VWS V14.00,2013-04-01 08:58:00,
2013-04-01 04:03:00,41.2,31.1,28.59,NNE,13,4.0,8.1,67,0.00,,---,0.00,VWS V14.00,2013-04-01 09:03:00,
2013-04-01 04:09:00,41.2,31.1,28.59,North,349,4.0,7.2,67,0.00,,---,0.00,VWS V14.00,2013-04-01 09:09:00,
2013-04-01 04:14:00,41.0,31.3,28.59,North,4,8.7,8.7,68,0.00,,---,0.00,VWS V14.00,2013-04-01 09:14:00,
2013-04-01 04:19:00,41.0,31.3,28.59,North,357,4.9,7.6,68,0.00,,---,0.00,VWS V14.00,2013-04-01 09:19:00,
2013-04-01 04:24:00,41.0,31.3,28.59,NNW,333,5.4,5.4,68,0.00,,---,0.00,VWS V14.00,2013-04-01 09:24:00,
2013-04-01 04:29:00,41.0,31.6,28.59,North,357,6.3,8.3,69,0.00,,---,0.00,VWS V14.00,2013-04-01 09:29:00,
2013-04-01 04:34:00,40.8,31.8,28.59,NNW,343,8.7,10.5,70,0.00,,---,0.00,VWS V14.00,2013-04-01 09:34:00,
2013-04-01 04:39:00,40.8,31.8,28.59,NNE,25,6.3,7.2,70,0.00,,---,0.00,VWS V14.00,2013-04-01 09:39:00,
2013-04-01 04:44:00,40.6,31.6,28.59,NNW,341,5.8,6.3,70,0.00,,---,0.00,VWS V14.00,2013-04-01 09:44:00,
2013-04-01 04:49:00,40.5,31.5,28.61,NNW,339,7.6,9.6,70,0.00,,---,0.00,VWS V14.00,2013-04-01 09:49:00,
2013-04-01 04:54:00,40.3,31.3,28.61,NNW,333,2.7,6.3,70,0.00,,---,0.00,VWS V14.00,2013-04-01 09:54:00,
2013-04-01 04:59:00,39.9,30.6,28.61,North,357,6.3,8.7,69,0.00,,---,0.00,VWS V14.00,2013-04-01 09:59:00,
2013-04-01 05:04:00,39.4,29.7,28.61,NW,318,2.7,7.6,68,0.00,,---,0.00,VWS V14.00,2013-04-01 10:04:00,
2013-04-01 05:09:00,38.8,29.5,28.61,North,353,8.1,8.1,69,0.00,,---,0.00,VWS V14.00,2013-04-01 10:09:00,
2013-04-01 05:14:00,38.5,29.2,28.61,NNE,18,13.2,13.2,69,0.00,,---,0.00,VWS V14.00,2013-04-01 10:14:00,
2013-04-01 05:19:00,38.1,29.2,28.61,NNW,338,4.0,10.1,70,0.00,,---,0.00,VWS V14.00,2013-04-01 10:19:00,
2013-04-01 05:24:00,37.9,29.0,28.61,NNE,16,5.8,6.3,70,0.00,,---,0.00,VWS V14.00,2013-04-01 10:24:00,
2013-04-01 05:30:00,37.9,29.0,28.61,NNW,345,4.0,5.8,70,0.00,,---,0.00,VWS V14.00,2013-04-01 10:30:00,
2013-04-01 05:35:00,37.8,28.9,28.64,North,353,8.1,12.3,70,0.00,,---,0.00,VWS V14.00,2013-04-01 10:35:00,
2013-04-01 05:40:00,37.6,28.7,28.64,NNW,344,4.9,6.3,70,0.00,,---,0.00,VWS V14.00,2013-04-01 10:40:00,
2013-04-01 05:45:00,37.6,28.7,28.64,North,5,9.2,9.2,70,0.00,,---,0.00,VWS V14.00,2013-04-01 10:45:00,
2013-04-01 05:50:00,37.6,28.7,28.64,NNE,21,4.9,4.9,70,0.00,,---,0.00,VWS V14.00,2013-04-01 10:50:00,
2013-04-01 05:55:00,37.6,29.0,28.64,NNW,344,6.3,6.3,71,0.00,,---,0.00,VWS V14.00,2013-04-01 10:55:00,
2013-04-01 06:00:00,37.4,28.5,28.64,NNW,342,8.1,8.1,70,0.00,,---,0.00,VWS V14.00,2013-04-01 11:00:00,
2013-04-01 06:05:00,37.4,28.5,28.64,NNW,340,10.1,10.1,70,0.00,,---,0.00,VWS V14.00,2013-04-01 11:05:00,
2013-04-01 06:10:00,37.2,28.4,28.64,North,10,5.8,7.6,70,0.00,,---,0.00,VWS V14.00,2013-04-01 11:10:00,
2013-04-01 06:15:00,37.2,28.7,28.64,North,353,7.6,9.6,71,0.00,,---,0.00,VWS V14.00,2013-04-01 11:15:00,
2013-04-01 06:21:00,37.2,28.7,28.64,North,353,3.6,6.3,71,0.00,,---,0.00,VWS V14.00,2013-04-01 11:21:00,
2013-04-01 06:26:00,37.2,28.7,28.64,NNW,342,10.1,10.1,71,0.00,,---,0.00,VWS V14.00,2013-04-01 11:26:00,
2013-04-01 06:31:00,37.2,28.7,28.64,NW,309,3.1,6.3,71,0.00,,---,0.00,VWS V14.00,2013-04-01 11:31:00,
2013-04-01 06:36:00,37.0,28.5,28.64,NNE,30,10.5,10.5,71,0.00,,---,0.00,VWS V14.00,2013-04-01 11:36:00,
2013-04-01 06:41:00,36.9,28.4,28.64,North,0,6.7,6.7,71,0.00,,---,0.00,VWS V14.00,2013-04-01 11:41:00,
2013-04-01 06:46:00,36.7,27.8,28.64,North,353,10.1,10.1,70,0.00,,---,0.00,VWS V14.00,2013-04-01 11:46:00,
2013-04-01 06:51:00,36.3,27.1,28.67,NNW,335,8.7,8.7,69,0.00,,---,0.00,VWS V14.00,2013-04-01 11:51:00,
2013-04-01 06:56:00,35.8,26.3,28.67,North,5,4.0,12.8,68,0.00,,---,0.00,VWS V14.00,2013-04-01 11:56:00,
2013-04-01 07:01:00,35.4,26.3,28.67,North,4,5.8,8.3,69,0.00,,---,0.00,VWS V14.00,2013-04-01 12:01:00,
2013-04-01 07:06:00,35.1,25.6,28.67,North,353,4.9,6.3,68,0.00,,---,0.00,VWS V14.00,2013-04-01 12:06:00,
2013-04-01 07:11:00,34.7,24.9,28.67,North,357,4.9,7.6,67,0.00,,---,0.00,VWS V14.00,2013-04-01 12:11:00,
2013-04-01 07:17:00,34.2,23.6,28.67,NNE,18,3.1,6.3,65,0.00,,---,0.00,VWS V14.00,2013-04-01 12:17:00,
2013-04-01 07:22:00,33.8,22.9,28.70,North,4,6.3,8.3,64,0.00,,---,0.00,VWS V14.00,2013-04-01 12:22:00,
2013-04-01 07:27:00,33.6,22.4,28.70,NNE,18,8.3,8.3,63,0.00,,---,0.00,VWS V14.00,2013-04-01 12:27:00,
2013-04-01 07:32:00,33.3,21.7,28.70,North,9,4.5,5.8,62,0.00,,---,0.00,VWS V14.00,2013-04-01 12:32:00,
2013-04-01 07:37:00,33.1,21.5,28.70,North,6,8.1,8.1,62,0.00,,---,0.00,VWS V14.00,2013-04-01 12:37:00,
2013-04-01 07:42:00,32.9,21.3,28.70,North,353,3.6,5.8,62,0.00,,---,0.00,VWS V14.00,2013-04-01 12:42:00,
2013-04-01 07:47:00,32.7,21.5,28.70,NNW,339,5.8,6.7,63,0.00,,---,0.00,VWS V14.00,2013-04-01 12:47:00,
2013-04-01 07:52:00,32.7,21.5,28.70,NNE,15,4.0,7.6,63,0.00,,---,0.00,VWS V14.00,2013-04-01 12:52:00,
2013-04-01 07:57:00,32.9,21.3,28.70,North,349,3.6,7.6,62,0.00,,---,0.00,VWS V14.00,2013-04-01 12:57:00,
2013-04-01 08:03:00,32.9,21.3,28.70,NNW,343,4.0,4.0,62,0.00,,---,0.00,VWS V14.00,2013-04-01 13:03:00,
2013-04-01 08:07:00,33.1,21.1,28.70,North,3,4.0,5.8,61,0.00,,---,0.00,VWS V14.00,2013-04-01 13:07:00,
2013-04-01 08:13:00,32.9,20.2,28.70,North,1,3.6,4.0,59,0.00,,---,0.00,VWS V14.00,2013-04-01 13:13:00,
2013-04-01 08:18:00,32.7,19.2,28.70,North,5,5.8,8.1,57,0.00,,---,0.00,VWS V14.00,2013-04-01 13:18:00,
2013-04-01 08:23:00,32.7,18.8,28.70,North,357,6.3,6.3,56,0.00,,---,0.00,VWS V14.00,2013-04-01 13:23:00,
2013-04-01 08:28:00,32.7,18.8,28.70,North,10,8.3,8.3,56,0.00,,---,0.00,VWS V14.00,2013-04-01 13:28:00,
2013-04-01 08:33:00,32.7,17.9,28.70,North,8,5.8,8.1,54,0.00,,---,0.00,VWS V14.00,2013-04-01 13:33:00,
2013-04-01 08:38:00,32.9,17.7,28.70,North,10,8.1,8.1,53,0.00,,---,0.00,VWS V14.00,2013-04-01 13:38:00,
2013-04-01 08:43:00,33.1,17.8,28.70,North,353,5.4,8.3,53,0.00,,---,0.00,VWS V14.00,2013-04-01 13:43:00,
2013-04-01 08:48:00,33.4,17.7,28.70,NNW,336,13.6,13.6,52,0.00,,---,0.00,VWS V14.00,2013-04-01 13:48:00,
2013-04-01 08:53:00,33.8,17.1,28.73,NNE,15,8.7,11.0,50,0.00,,---,0.00,VWS V14.00,2013-04-01 13:53:00,
2013-04-01 08:58:00,34.2,17.5,28.73,NNE,25,7.6,8.1,50,0.00,,---,0.00,VWS V14.00,2013-04-01 13:58:00,
2013-04-01 09:03:00,34.7,18.0,28.73,NNW,334,5.8,6.3,50,0.00,,---,0.00,VWS V14.00,2013-04-01 14:03:00,
2013-04-01 09:08:00,35.1,16.9,28.73,NNE,16,5.8,15.0,47,0.00,,---,0.00,VWS V14.00,2013-04-01 14:08:00,
2013-04-01 09:13:00,35.2,16.5,28.73,NNE,31,8.3,8.7,46,0.00,,---,0.00,VWS V14.00,2013-04-01 14:13:00,
2013-04-01 09:19:00,35.4,16.2,28.73,North,6,6.3,8.7,45,0.00,,---,0.00,VWS V14.00,2013-04-01 14:19:00,
2013-04-01 09:24:00,35.4,16.2,28.73,NNE,26,8.1,10.1,45,0.00,,---,0.00,VWS V14.00,2013-04-01 14:24:00,
2013-04-01 09:29:00,35.8,16.5,28.73,NNE,15,4.0,8.3,45,0.00,,---,0.00,VWS V14.00,2013-04-01 14:29:00,
2013-04-01 09:34:00,36.3,17.0,28.73,North,353,8.1,8.1,45,0.00,,---,0.00,VWS V14.00,2013-04-01 14:34:00,
2013-04-01 09:39:00,36.7,17.9,28.73,North,357,5.4,5.4,46,0.00,,---,0.00,VWS V14.00,2013-04-01 14:39:00,
2013-04-01 09:44:00,37.0,18.2,28.73,North,357,4.0,5.8,46,0.00,,---,0.00,VWS V14.00,2013-04-01 14:44:00,
2013-04-01 09:49:00,37.4,18.0,28.73,NNW,335,4.9,5.4,45,0.00,,---,0.00,VWS V14.00,2013-04-01 14:49:00,
2013-04-01 09:54:00,37.9,18.0,28.73,North,0,5.8,11.0,44,0.00,,---,0.00,VWS V14.00,2013-04-01 14:54:00,
2013-04-01 09:59:00,38.5,17.4,28.73,NE,34,7.6,8.3,42,0.00,,---,0.00,VWS V14.00,2013-04-01 14:59:00,
2013-04-01 10:04:00,38.8,17.2,28.73,North,353,4.9,8.7,41,0.00,,---,0.00,VWS V14.00,2013-04-01 15:04:00,
2013-04-01 10:10:00,38.8,17.2,28.73,NNE,22,8.7,8.7,41,0.00,,---,0.00,VWS V14.00,2013-04-01 15:10:00,
2013-04-01 10:15:00,38.8,16.6,28.73,North,0,4.5,6.3,40,0.00,,---,0.00,VWS V14.00,2013-04-01 15:15:00,
2013-04-01 10:20:00,39.0,16.8,28.73,NNE,15,5.4,11.4,40,0.00,,---,0.00,VWS V14.00,2013-04-01 15:20:00,
2013-04-01 10:25:00,39.0,16.2,28.73,NW,325,5.4,5.8,39,0.00,,---,0.00,VWS V14.00,2013-04-01 15:25:00,
2013-04-01 10:30:00,38.7,15.9,28.73,North,5,4.9,4.9,39,0.00,,---,0.00,VWS V14.00,2013-04-01 15:30:00,
2013-04-01 10:35:00,38.7,15.9,28.73,NNE,30,4.0,10.5,39,0.00,,---,0.00,VWS V14.00,2013-04-01 15:35:00,
2013-04-01 10:40:00,38.7,15.9,28.73,NNW,337,4.0,7.6,39,0.00,,---,0.00,VWS V14.00,2013-04-01 15:40:00,
2013-04-01 10:45:00,39.0,16.2,28.73,NNW,338,5.8,5.8,39,0.00,,---,0.00,VWS V14.00,2013-04-01 15:45:00,
2013-04-01 10:50:00,39.2,16.3,28.73,NW,320,6.3,8.7,39,0.00,,---,0.00,VWS V14.00,2013-04-01 15:50:00,
2013-04-01 10:55:00,39.2,16.3,28.73,NE,36,4.0,5.8,39,0.00,,---,0.00,VWS V14.00,2013-04-01 15:55:00,
2013-04-01 11:01:00,39.4,16.5,28.73,North,353,3.6,8.7,39,0.00,,---,0.00,VWS V14.00,2013-04-01 16:01:00,
2013-04-01 11:06:00,39.7,16.8,28.73,NE,45,5.4,7.6,39,0.00,,---,0.00,VWS V14.00,2013-04-01 16:06:00,
2013-04-01 11:11:00,40.1,17.1,28.73,North,357,8.7,8.7,39,0.00,,---,0.00,VWS V14.00,2013-04-01 16:11:00,
2013-04-01 11:16:00,40.3,17.3,28.73,North,353,8.3,8.3,39,0.00,,---,0.00,VWS V14.00,2013-04-01 16:16:00,
2013-04-01 11:21:00,40.1,17.1,28.73,NNE,31,7.6,7.6,39,0.00,,---,0.00,VWS V14.00,2013-04-01 16:21:00,
2013-04-01 11:26:00,39.9,17.0,28.73,North,0,5.4,10.5,39,0.00,,---,0.00,VWS V14.00,2013-04-01 16:26:00,
2013-04-01 11:31:00,39.6,16.7,28.73,North,8,3.1,5.8,39,0.00,,---,0.00,VWS V14.00,2013-04-01 16:31:00,
2013-04-01 11:36:00,39.2,15.7,28.73,North,353,5.8,8.1,38,0.00,,---,0.00,VWS V14.00,2013-04-01 16:36:00,
2013-04-01 11:41:00,38.8,16.0,28.73,NW,320,4.0,5.4,39,0.00,,---,0.00,VWS V14.00,2013-04-01 16:41:00,
2013-04-01 11:46:00,39.0,16.2,28.73,NNE,17,5.4,5.8,39,0.00,,---,0.00,VWS V14.00,2013-04-01 16:46:00,
2013-04-01 11:52:00,39.4,16.5,28.73,North,353,8.7,8.7,39,0.00,,---,0.00,VWS V14.00,2013-04-01 16:52:00,
2013-04-01 11:57:00,39.9,17.0,28.73,NNW,338,3.6,3.6,39,0.00,,---,0.00,VWS V14.00,2013-04-01 16:57:00,
2013-04-01 12:02:00,40.3,17.3,28.73,NNW,335,5.8,6.3,39,0.00,,---,0.00,VWS V14.00,2013-04-01 17:02:00,
2013-04-01 12:07:00,40.6,17.6,28.76,NNE,32,10.1,10.1,39,0.00,,---,0.00,VWS V14.00,2013-04-01 17:07:00,
2013-04-01 12:13:00,40.8,16.6,28.76,NE,42,7.6,7.6,37,0.00,,---,0.00,VWS V14.00,2013-04-01 17:13:00,
2013-04-01 12:18:00,41.0,16.7,28.76,NNE,31,8.1,8.1,37,0.00,,---,0.00,VWS V14.00,2013-04-01 17:18:00,
2013-04-01 12:23:00,41.2,16.9,28.76,NNE,17,8.1,8.1,37,0.00,,---,0.00,VWS V14.00,2013-04-01 17:23:00,
2013-04-01 12:28:00,41.4,17.1,28.76,NNW,338,3.1,3.1,37,0.00,,---,0.00,VWS V14.00,2013-04-01 17:28:00,
2013-04-01 12:33:00,41.5,17.2,28.76,NNW,345,3.6,5.4,37,0.00,,---,0.00,VWS V14.00,2013-04-01 17:33:00,
2013-04-01 12:38:00,42.3,17.9,28.76,NNE,21,6.3,8.1,37,0.00,,---,0.00,VWS V14.00,2013-04-01 17:38:00,
2013-04-01 12:43:00,42.8,17.1,28.76,North,353,5.8,6.3,35,0.00,,---,0.00,VWS V14.00,2013-04-01 17:43:00,
2013-04-01 12:48:00,43.0,17.2,28.76,WNW,303,8.1,8.1,35,0.00,,---,0.00,VWS V14.00,2013-04-01 17:48:00,
2013-04-01 12:53:00,42.6,16.9,28.76,North,353,6.3,8.3,35,0.00,,---,0.00,VWS V14.00,2013-04-01 17:53:00,
2013-04-01 12:58:00,42.8,16.4,28.76,NNE,18,3.1,8.3,34,0.00,,---,0.00,VWS V14.00,2013-04-01 17:58:00,
2013-04-01 13:03:00,43.5,17.0,28.76,North,353,6.3,11.0,34,0.00,,---,0.00,VWS V14.00,2013-04-01 18:03:00,
2013-04-01 13:08:00,44.1,17.5,28.76,North,2,6.3,10.1,34,0.00,,---,0.00,VWS V14.00,2013-04-01 18:08:00,
2013-04-01 13:14:00,44.4,17.1,28.76,North,5,5.4,6.3,33,0.00,,---,0.00,VWS V14.00,2013-04-01 18:14:00,
2013-04-01 13:19:00,44.2,17.0,28.76,North,0,2.7,2.7,33,0.00,,---,0.00,VWS V14.00,2013-04-01 18:19:00,
2013-04-01 13:24:00,44.2,17.0,28.73,North,353,4.0,6.3,33,0.00,,---,0.00,VWS V14.00,2013-04-01 18:24:00,
2013-04-01 13:29:00,44.2,17.0,28.73,NNW,343,3.1,3.1,33,0.00,,---,0.00,VWS V14.00,2013-04-01 18:29:00,
2013-04-01 13:34:00,44.2,17.0,28.73,NNE,26,4.9,4.9,33,0.00,,---,0.00,VWS V14.00,2013-04-01 18:34:00,
2013-04-01 13:39:00,45.0,16.9,28.73,North,0,8.3,8.7,32,0.00,,---,0.00,VWS V14.00,2013-04-01 18:39:00,
2013-04-01 13:44:00,45.3,17.2,28.73,NNE,24,5.4,5.4,32,0.00,,---,0.00,VWS V14.00,2013-04-01 18:44:00,
2013-04-01 13:49:00,45.3,17.2,28.73,NNW,327,3.6,5.4,32,0.00,,---,0.00,VWS V14.00,2013-04-01 18:49:00,
2013-04-01 13:54:00,45.5,17.4,28.73,North,10,8.1,8.1,32,0.00,,---,0.00,VWS V14.00,2013-04-01 18:54:00,
2013-04-01 13:59:00,45.5,17.4,28.73,NNE,27,3.6,4.0,32,0.00,,---,0.00,VWS V14.00,2013-04-01 18:59:00,
2013-04-01 14:04:00,45.3,17.2,28.70,NE,34,7.6,10.1,32,0.00,,---,0.00,VWS V14.00,2013-04-01 19:04:00,
2013-04-01 14:09:00,45.0,16.9,28.70,NNW,346,8.3,9.2,32,0.00,,---,0.00,VWS V14.00,2013-04-01 19:09:00,
2013-04-01 14:15:00,44.8,16.0,28.70,NNW,334,8.3,8.7,31,0.00,,---,0.00,VWS V14.00,2013-04-01 19:15:00,
2013-04-01 14:20:00,44.8,16.0,28.70,North,0,4.0,7.6,31,0.00,,---,0.00,VWS V14.00,2013-04-01 19:20:00,
2013-04-01 14:25:00,44.6,15.9,28.70,NNW,344,7.2,8.3,31,0.00,,---,0.00,VWS V14.00,2013-04-01 19:25:00,
2013-04-01 14:30:00,44.8,16.0,28.70,NNW,342,5.4,5.4,31,0.00,,---,0.00,VWS V14.00,2013-04-01 19:30:00,
2013-04-01 14:35:00,45.3,17.2,28.70,North,0,4.0,4.0,32,0.00,,---,0.00,VWS V14.00,2013-04-01 19:35:00,
2013-04-01 14:40:00,45.7,16.8,28.70,NNW,344,6.3,6.3,31,0.00,,---,0.00,VWS V14.00,2013-04-01 19:40:00,
2013-04-01 14:45:00,45.9,17.0,28.70,NNE,15,3.1,3.1,31,0.00,,---,0.00,VWS V14.00,2013-04-01 19:45:00,
2013-04-01 14:50:00,46.0,17.1,28.70,NW,312,5.8,8.3,31,0.00,,---,0.00,VWS V14.00,2013-04-01 19:50:00,
2013-04-01 14:55:00,46.4,17.4,28.70,NNE,13,6.3,8.1,31,0.00,,---,0.00,VWS V14.00,2013-04-01 19:55:00,
2013-04-01 15:00:00,46.4,16.7,28.70,NNW,342,3.6,5.4,30,0.00,,---,0.00,VWS V14.00,2013-04-01 20:00:00,
2013-04-01 15:06:00,46.9,17.1,28.70,North,357,5.8,10.1,30,0.00,,---,0.00,VWS V14.00,2013-04-01 20:06:00,
2013-04-01 15:11:00,46.9,17.1,28.70,North,5,3.1,3.1,30,0.00,,---,0.00,VWS V14.00,2013-04-01 20:11:00,
2013-04-01 15:16:00,46.9,17.1,28.70,NNE,24,5.4,8.3,30,0.00,,---,0.00,VWS V14.00,2013-04-01 20:16:00,
2013-04-01 15:21:00,46.9,17.1,28.67,North,353,3.6,5.4,30,0.00,,---,0.00,VWS V14.00,2013-04-01 20:21:00,
2013-04-01 15:26:00,46.9,17.1,28.67,NE,35,8.1,8.1,30,0.00,,---,0.00,VWS V14.00,2013-04-01 20:26:00,
2013-04-01 15:31:00,47.3,17.5,28.67,NNE,22,4.9,7.6,30,0.00,,---,0.00,VWS V14.00,2013-04-01 20:31:00,
2013-04-01 15:36:00,47.1,16.5,28.67,NE,35,5.8,8.1,29,0.00,,---,0.00,VWS V14.00,2013-04-01 20:36:00,
2013-04-01 15:42:00,47.1,16.5,28.67,North,353,4.0,6.3,29,0.00,,---,0.00,VWS V14.00,2013-04-01 20:42:00,
2013-04-01 15:47:00,47.1,17.3,28.67,North,10,5.8,5.8,30,0.00,,---,0.00,VWS V14.00,2013-04-01 20:47:00,
2013-04-01 15:52:00,47.1,17.3,28.67,NE,42,5.4,8.7,30,0.00,,---,0.00,VWS V14.00,2013-04-01 20:52:00,
2013-04-01 15:57:00,47.3,17.5,28.67,North,353,6.3,6.3,30,0.00,,---,0.00,VWS V14.00,2013-04-01 20:57:00,
2013-04-01 16:02:00,47.1,17.3,28.67,North,353,4.0,5.8,30,0.00,,---,0.00,VWS V14.00,2013-04-01 21:02:00,
2013-04-01 16:07:00,47.3,17.5,28.67,NW,306,4.0,6.3,30,0.00,,---,0.00,VWS V14.00,2013-04-01 21:07:00,
2013-04-01 16:12:00,47.3,17.5,28.67,ENE,57,5.4,6.3,30,0.00,,---,0.00,VWS V14.00,2013-04-01 21:12:00,
2013-04-01 16:17:00,47.3,17.5,28.67,NE,54,5.8,6.3,30,0.00,,---,0.00,VWS V14.00,2013-04-01 21:17:00,
2013-04-01 16:22:00,47.3,17.5,28.67,North,0,6.3,8.7,30,0.00,,---,0.00,VWS V14.00,2013-04-01 21:22:00,
2013-04-01 16:27:00,46.9,16.4,28.67,NNE,20,5.8,6.7,29,0.00,,---,0.00,VWS V14.00,2013-04-01 21:27:00,
2013-04-01 16:32:00,47.1,17.3,28.67,North,0,5.8,6.3,30,0.00,,---,0.00,VWS V14.00,2013-04-01 21:32:00,
2013-04-01 16:38:00,47.1,17.3,28.67,North,7,4.0,4.0,30,0.00,,---,0.00,VWS V14.00,2013-04-01 21:38:00,
2013-04-01 16:43:00,47.1,17.3,28.67,North,357,3.6,3.6,30,0.00,,---,0.00,VWS V14.00,2013-04-01 21:43:00,
2013-04-01 16:48:00,46.8,17.0,28.67,North,357,8.7,8.7,30,0.00,,---,0.00,VWS V14.00,2013-04-01 21:48:00,
2013-04-01 16:53:00,46.6,16.8,28.67,NNE,17,2.7,6.3,30,0.00,,---,0.00,VWS V14.00,2013-04-01 21:53:00,
2013-04-01 16:58:00,46.6,16.8,28.67,ENE,76,8.7,8.7,30,0.00,,---,0.00,VWS V14.00,2013-04-01 21:58:00,
2013-04-01 17:03:00,46.4,16.7,28.67,North,357,4.9,5.8,30,0.00,,---,0.00,VWS V14.00,2013-04-01 22:03:00,
2013-04-01 17:08:00,46.0,16.4,28.67,NE,43,3.6,6.3,30,0.00,,---,0.00,VWS V14.00,2013-04-01 22:08:00,
2013-04-01 17:13:00,46.0,16.4,28.67,NE,39,6.3,6.3,30,0.00,,---,0.00,VWS V14.00,2013-04-01 22:13:00,
2013-04-01 17:18:00,45.9,17.0,28.67,NNE,20,3.6,5.8,31,0.00,,---,0.00,VWS V14.00,2013-04-01 22:18:00,
2013-04-01 17:23:00,46.0,17.1,28.64,NE,38,5.4,5.8,31,0.00,,---,0.00,VWS V14.00,2013-04-01 22:23:00,
2013-04-01 17:28:00,46.2,17.3,28.64,NNE,21,8.3,8.3,31,0.00,,---,0.00,VWS V14.00,2013-04-01 22:28:00,
2013-04-01 17:33:00,46.2,17.3,28.64,North,0,3.1,5.8,31,0.00,,---,0.00,VWS V14.00,2013-04-01 22:33:00,
2013-04-01 17:38:00,46.2,17.3,28.64,North,8,5.4,5.4,31,0.00,,---,0.00,VWS V14.00,2013-04-01 22:38:00,
2013-04-01 17:44:00,46.0,17.1,28.64,NNE,12,4.0,5.8,31,0.00,,---,0.00,VWS V14.00,2013-04-01 22:44:00,
2013-04-01 17:49:00,46.0,17.1,28.64,North,357,5.4,10.1,31,0.00,,---,0.00,VWS V14.00,2013-04-01 22:49:00,
2013-04-01 17:54:00,45.9,17.0,28.64,NE,38,4.0,4.0,31,0.00,,---,0.00,VWS V14.00,2013-04-01 22:54:00,
2013-04-01 17:59:00,45.7,16.8,28.64,NNE,21,6.3,6.3,31,0.00,,---,0.00,VWS V14.00,2013-04-01 22:59:00,
2013-04-01 18:04:00,45.7,16.8,28.64,North,1,2.7,2.7,31,0.00,,---,0.00,VWS V14.00,2013-04-01 23:04:00,
2013-04-01 18:09:00,45.5,16.6,28.64,NE,55,8.1,8.1,31,0.00,,---,0.00,VWS V14.00,2013-04-01 23:09:00,
2013-04-01 18:14:00,45.5,16.6,28.64,NE,38,5.4,7.6,31,0.00,,---,0.00,VWS V14.00,2013-04-01 23:14:00,
2013-04-01 18:19:00,45.5,16.6,28.64,North,357,7.6,8.3,31,0.00,,---,0.00,VWS V14.00,2013-04-01 23:19:00,
2013-04-01 18:24:00,45.3,16.5,28.64,NNW,348,3.1,4.9,31,0.00,,---,0.00,VWS V14.00,2013-04-01 23:24:00,
2013-04-01 18:29:00,45.3,16.5,28.64,ENE,67,5.8,5.8,31,0.00,,---,0.00,VWS V14.00,2013-04-01 23:29:00,
2013-04-01 18:34:00,45.3,16.5,28.64,North,6,5.8,8.3,31,0.00,,---,0.00,VWS V14.00,2013-04-01 23:34:00,
2013-04-01 18:40:00,45.3,16.5,28.64,North,8,5.8,6.3,31,0.00,,---,0.00,VWS V14.00,2013-04-01 23:40:00,
2013-04-01 18:45:00,45.1,16.3,28.64,NNW,348,6.3,6.3,31,0.00,,---,0.00,VWS V14.00,2013-04-01 23:45:00,
2013-04-01 18:50:00,45.1,16.3,28.64,North,7,5.4,5.4,31,0.00,,---,0.00,VWS V14.00,2013-04-01 23:50:00,
2013-04-01 18:55:00,45.1,16.3,28.64,North,1,6.3,6.3,31,0.00,,---,0.00,VWS V14.00,2013-04-01 23:55:00,
2013-04-01 19:00:00,45.1,16.3,28.64,NNE,30,3.1,3.6,31,0.00,,---,0.00,VWS V14.00,2013-04-02 00:00:00,
2013-04-01 19:05:00,45.0,16.2,28.64,North,5,4.0,4.0,31,0.00,,---,0.00,VWS V14.00,2013-04-02 00:05:00,
2013-04-01 19:10:00,44.8,16.0,28.64,North,7,3.6,4.0,31,0.00,,---,0.00,VWS V14.00,2013-04-02 00:10:00,
2013-04-01 19:15:00,44.8,16.0,28.64,NNE,17,4.0,4.0,31,0.00,,---,0.00,VWS V14.00,2013-04-02 00:15:00,
2013-04-01 19:20:00,44.6,15.9,28.64,NE,35,5.4,5.4,31,0.00,,---,0.00,VWS V14.00,2013-04-02 00:20:00,
2013-04-01 19:26:00,44.6,15.9,28.64,North,357,2.7,4.0,31,0.00,,---,0.00,VWS V14.00,2013-04-02 00:26:00,
2013-04-01 19:31:00,44.2,15.5,28.64,NNE,13,3.6,3.6,31,0.00,,---,0.00,VWS V14.00,2013-04-02 00:31:00,
2013-04-01 19:36:00,44.2,15.5,28.64,NNE,19,3.6,4.0,31,0.00,,---,0.00,VWS V14.00,2013-04-02 00:36:00,
2013-04-01 19:41:00,44.1,16.1,28.64,NNE,19,0.0,0.0,32,0.00,,---,0.00,VWS V14.00,2013-04-02 00:41:00,
2013-04-01 19:47:00,44.1,16.1,28.64,North,0,3.6,3.6,32,0.00,,---,0.00,VWS V14.00,2013-04-02 00:47:00,
2013-04-01 19:52:00,43.9,15.9,28.64,NNE,17,3.6,3.6,32,0.00,,---,0.00,VWS V14.00,2013-04-02 00:52:00,
2013-04-01 19:57:00,43.7,15.8,28.64,North,357,3.6,3.6,32,0.00,,---,0.00,VWS V14.00,2013-04-02 00:57:00,
2013-04-01 20:02:00,43.7,15.8,28.64,North,7,2.7,2.7,32,0.00,,---,0.00,VWS V14.00,2013-04-02 01:02:00,
2013-04-01 20:07:00,43.3,15.5,28.64,North,3,3.6,5.8,32,0.00,,---,0.00,VWS V14.00,2013-04-02 01:07:00,
2013-04-01 20:12:00,43.2,15.3,28.64,North,10,3.6,4.0,32,0.00,,---,0.00,VWS V14.00,2013-04-02 01:12:00,
2013-04-01 20:17:00,43.0,15.2,28.64,North,4,2.7,4.9,32,0.00,,---,0.00,VWS V14.00,2013-04-02 01:17:00,
2013-04-01 20:22:00,42.8,15.7,28.67,NNE,14,3.6,3.6,33,0.00,,---,0.00,VWS V14.00,2013-04-02 01:22:00,
2013-04-01 20:27:00,42.6,15.6,28.67,NNE,27,5.8,5.8,33,0.00,,---,0.00,VWS V14.00,2013-04-02 01:27:00,
2013-04-01 20:32:00,42.4,15.4,28.67,NNE,25,2.7,6.3,33,0.00,,---,0.00,VWS V14.00,2013-04-02 01:32:00,
2013-04-01 20:37:00,42.3,15.2,28.67,North,11,3.1,3.1,33,0.00,,---,0.00,VWS V14.00,2013-04-02 01:37:00,
2013-04-01 20:42:00,42.1,15.8,28.67,North,357,4.0,4.0,34,0.00,,---,0.00,VWS V14.00,2013-04-02 01:42:00,
2013-04-01 20:47:00,42.1,15.8,28.67,NNE,25,2.7,5.8,34,0.00,,---,0.00,VWS V14.00,2013-04-02 01:47:00,
2013-04-01 20:52:00,41.7,15.4,28.67,North,357,5.4,5.4,34,0.00,,---,0.00,VWS V14.00,2013-04-02 01:52:00,
2013-04-01 20:57:00,41.7,15.4,28.67,North,7,4.0,5.4,34,0.00,,---,0.00,VWS V14.00,2013-04-02 01:57:00,
2013-04-01 21:02:00,41.5,15.3,28.67,North,3,4.0,4.0,34,0.00,,---,0.00,VWS V14.00,2013-04-02 02:02:00,
2013-04-01 21:07:00,41.4,15.1,28.67,North,4,3.1,7.6,34,0.00,,---,0.00,VWS V14.00,2013-04-02 02:07:00,
2013-04-01 21:12:00,41.2,15.0,28.67,North,8,5.4,6.3,34,0.00,,---,0.00,VWS V14.00,2013-04-02 02:12:00,
2013-04-01 21:18:00,41.2,15.0,28.67,NNW,343,3.6,5.8,34,0.00,,---,0.00,VWS V14.00,2013-04-02 02:18:00,
2013-04-01 21:23:00,41.0,14.8,28.70,NNE,12,3.6,3.6,34,0.00,,---,0.00,VWS V14.00,2013-04-02 02:23:00,
2013-04-01 21:28:00,40.8,15.3,28.70,NNE,23,2.7,5.4,35,0.00,,---,0.00,VWS V14.00,2013-04-02 02:28:00,
2013-04-01 21:33:00,40.6,15.1,28.70,North,4,4.0,5.8,35,0.00,,---,0.00,VWS V14.00,2013-04-02 02:33:00,
2013-04-01 21:38:00,40.5,15.0,28.70,NNE,31,2.7,4.0,35,0.00,,---,0.00,VWS V14.00,2013-04-02 02:38:00,
2013-04-01 21:43:00,40.3,14.8,28.70,NNE,12,4.0,4.9,35,0.00,,---,0.00,VWS V14.00,2013-04-02 02:43:00,
2013-04-01 21:48:00,40.1,14.7,28.70,North,357,4.9,5.4,35,0.00,,---,0.00,VWS V14.00,2013-04-02 02:48:00,
2013-04-01 21:53:00,39.9,15.1,28.70,NNE,31,4.0,5.4,36,0.00,,---,0.00,VWS V14.00,2013-04-02 02:53:00,
2013-04-01 21:59:00,39.7,15.0,28.70,NNE,14,6.3,6.3,36,0.00,,---,0.00,VWS V14.00,2013-04-02 02:59:00,
2013-04-01 22:04:00,39.6,15.4,28.70,North,0,3.6,3.6,37,0.00,,---,0.00,VWS V14.00,2013-04-02 03:04:00,
2013-04-01 22:09:00,39.4,15.3,28.70,NNE,17,4.0,6.3,37,0.00,,---,0.00,VWS V14.00,2013-04-02 03:09:00,
2013-04-01 22:14:00,39.2,15.1,28.70,North,4,5.4,6.3,37,0.00,,---,0.00,VWS V14.00,2013-04-02 03:14:00,
2013-04-01 22:19:00,38.8,15.4,28.70,North,0,4.9,4.9,38,0.00,,---,0.00,VWS V14.00,2013-04-02 03:19:00,
2013-04-01 22:24:00,38.8,16.0,28.70,North,0,4.0,8.1,39,0.00,,---,0.00,VWS V14.00,2013-04-02 03:24:00,
2013-04-01 22:29:00,38.7,15.9,28.70,NNW,345,4.9,4.9,39,0.00,,---,0.00,VWS V14.00,2013-04-02 03:29:00,
2013-04-01 22:34:00,38.5,15.7,28.70,North,3,3.1,3.6,39,0.00,,---,0.00,VWS V14.00,2013-04-02 03:34:00,
2013-04-01 22:40:00,38.3,15.5,28.70,North,357,3.6,4.0,39,0.00,,---,0.00,VWS V14.00,2013-04-02 03:40:00,
2013-04-01 22:45:00,38.1,15.4,28.70,North,357,3.6,3.6,39,0.00,,---,0.00,VWS V14.00,2013-04-02 03:45:00,
2013-04-01 22:50:00,37.9,15.2,28.70,NNE,16,3.1,3.1,39,0.00,,---,0.00,VWS V14.00,2013-04-02 03:50:00,
2013-04-01 22:55:00,37.9,15.2,28.70,North,357,4.0,4.9,39,0.00,,---,0.00,VWS V14.00,2013-04-02 03:55:00,
2013-04-01 23:00:00,37.8,15.0,28.70,NNE,30,3.6,4.0,39,0.00,,---,0.00,VWS V14.00,2013-04-02 04:00:00,
2013-04-01 23:01:00,37.8,15.0,28.70,North,4,3.1,4.0,39,0.00,,---,0.00,VWS V14.00,2013-04-02 04:01:00,
2013-04-01 23:06:00,37.6,15.5,28.70,NNE,23,3.6,5.4,40,0.00,,---,0.00,VWS V14.00,2013-04-02 04:06:00,
2013-04-01 23:11:00,37.4,15.3,28.70,North,357,3.6,5.8,40,0.00,,---,0.00,VWS V14.00,2013-04-02 04:11:00,
2013-04-01 23:16:00,37.2,15.1,28.70,North,6,2.7,3.6,40,0.00,,---,0.00,VWS V14.00,2013-04-02 04:16:00,
2013-04-01 23:21:00,37.0,15.0,28.70,North,6,6.3,6.3,40,0.00,,---,0.00,VWS V14.00,2013-04-02 04:21:00,
2013-04-01 23:26:00,37.0,15.0,28.70,North,4,3.6,5.8,40,0.00,,---,0.00,VWS V14.00,2013-04-02 04:26:00,
2013-04-01 23:31:00,36.9,14.8,28.70,NNE,14,5.4,7.6,40,0.00,,---,0.00,VWS V14.00,2013-04-02 04:31:00,
2013-04-01 23:37:00,36.7,14.6,28.70,NNE,24,3.1,4.9,40,0.00,,---,0.00,VWS V14.00,2013-04-02 04:37:00,
2013-04-01 23:42:00,36.7,15.2,28.70,North,3,4.0,5.4,41,0.00,,---,0.00,VWS V14.00,2013-04-02 04:42:00,
2013-04-01 23:47:00,36.5,15.1,28.70,ENE,78,5.4,5.4,41,0.00,,---,0.00,VWS V14.00,2013-04-02 04:47:00,
2013-04-01 23:52:00,36.3,14.9,28.70,North,3,2.7,4.0,41,0.00,,---,0.00,VWS V14.00,2013-04-02 04:52:00,
2013-04-01 23:57:00,36.1,14.7,28.70,NE,35,4.0,5.4,41,0.00,,---,0.00,VWS V14.00,2013-04-02 04:57:00,